createdAt,value
2023-04-30T00:01:27.824Z,100.00
2023-04-30T00:03:54.734Z,100.00
2023-04-30T00:06:21.799Z,100.00
2023-04-30T00:08:48.541Z,100.00
2023-04-30T00:11:15.564Z,100.00
2023-04-30T00:13:43.341Z,100.00
2023-04-30T00:16:10.098Z,100.00
2023-04-30T00:18:38.180Z,100.00
2023-04-30T00:21:05.097Z,100.00
2023-04-30T00:23:31.854Z,100.00
2023-04-30T00:25:58.551Z,100.00
2023-04-30T00:28:25.358Z,100.00
2023-04-30T00:30:52.057Z,100.00
2023-04-30T00:33:18.741Z,100.00
2023-04-30T00:35:45.536Z,100.00
2023-04-30T00:38:12.356Z,100.00
2023-04-30T00:40:40.771Z,100.00
2023-04-30T00:43:07.439Z,100.00
2023-04-30T00:45:34.111Z,100.00
2023-04-30T00:48:00.995Z,100.00
2023-04-30T00:50:27.848Z,100.00
2023-04-30T00:52:54.640Z,100.00
2023-04-30T00:55:21.872Z,100.00
2023-04-30T00:57:49.039Z,100.00
2023-04-30T01:02:51.180Z,100.00
2023-04-30T01:05:18.016Z,100.00
2023-04-30T01:07:46.800Z,100.00
2023-04-30T01:10:14.831Z,100.00
2023-04-30T01:12:49.100Z,100.00
2023-04-30T01:15:19.903Z,100.00
2023-04-30T01:18:19.865Z,100.00
2023-04-30T01:21:05.830Z,100.00
2023-04-30T01:23:49.159Z,100.00
2023-04-30T01:26:36.396Z,100.00
2023-04-30T01:29:04.519Z,100.00
2023-04-30T01:31:31.648Z,100.00
2023-04-30T01:33:58.856Z,100.00
2023-04-30T01:37:05.287Z,100.00
2023-04-30T01:40:12.984Z,100.00
2023-04-30T01:42:53.371Z,100.00
2023-04-30T01:46:16.069Z,100.00
2023-04-30T01:49:00.053Z,100.00
2023-04-30T01:51:43.179Z,100.00
2023-04-30T01:54:23.261Z,100.00
2023-04-30T01:57:04.828Z,100.00
2023-04-30T01:59:33.694Z,100.00
2023-04-30T02:02:01.170Z,100.00
2023-04-30T02:04:28.040Z,100.00
2023-04-30T02:06:54.904Z,100.00
2023-04-30T02:09:24.665Z,100.00
2023-04-30T02:11:51.992Z,100.00
2023-04-30T02:14:18.813Z,100.00
2023-04-30T02:16:46.680Z,100.00
2023-04-30T02:19:13.580Z,100.00
2023-04-30T02:21:40.583Z,100.00
2023-04-30T02:24:08.141Z,100.00
2023-04-30T02:26:35.207Z,100.00
2023-04-30T02:29:01.991Z,100.00
2023-04-30T02:31:32.939Z,100.00
2023-04-30T02:34:02.060Z,100.00
2023-04-30T02:36:28.894Z,100.00
2023-04-30T02:38:56.960Z,100.00
2023-04-30T02:41:23.664Z,100.00
2023-04-30T02:43:50.477Z,100.00
2023-04-30T02:46:17.319Z,100.00
2023-04-30T02:48:44.187Z,100.00
2023-04-30T02:51:10.990Z,100.00
2023-04-30T02:53:37.908Z,100.00
2023-04-30T02:56:05.316Z,100.00
2023-04-30T02:58:32.027Z,100.00
2023-04-30T03:00:58.753Z,100.00
2023-04-30T03:03:25.773Z,100.00
2023-04-30T03:05:53.170Z,100.00
2023-04-30T03:08:20.348Z,100.00
2023-04-30T03:10:47.449Z,100.00
2023-04-30T03:13:15.030Z,100.00
2023-04-30T03:15:41.873Z,100.00
2023-04-30T03:18:08.660Z,100.00
2023-04-30T03:20:36.237Z,100.00
2023-04-30T03:23:03.618Z,100.00
2023-04-30T03:25:30.395Z,100.00
2023-04-30T03:27:57.742Z,100.00
2023-04-30T03:30:25.618Z,100.00
2023-04-30T03:32:52.436Z,100.00
2023-04-30T03:35:19.533Z,100.00
2023-04-30T03:37:46.306Z,100.00
2023-04-30T03:40:13.587Z,100.00
2023-04-30T03:42:41.993Z,100.00
2023-04-30T03:45:09.826Z,100.00
2023-04-30T03:47:37.434Z,100.00
2023-04-30T03:50:04.620Z,100.00
2023-04-30T03:52:32.127Z,100.00
2023-04-30T03:54:59.135Z,100.00
2023-04-30T03:57:26.061Z,100.00
2023-04-30T03:59:52.970Z,100.00
2023-04-30T04:02:22.024Z,100.00
2023-04-30T04:04:49.198Z,100.00
2023-04-30T04:07:17.525Z,100.00
2023-04-30T04:09:44.369Z,100.00
2023-04-30T04:12:11.165Z,100.00
2023-04-30T04:14:38.035Z,100.00
2023-04-30T04:17:06.872Z,100.00
2023-04-30T04:19:33.586Z,100.00
2023-04-30T04:22:00.364Z,100.00
2023-04-30T04:24:27.208Z,100.00
2023-04-30T04:26:54.662Z,100.00
2023-04-30T04:29:22.206Z,100.00
2023-04-30T04:31:51.398Z,100.00
2023-04-30T04:34:20.316Z,100.00
2023-04-30T04:36:47.122Z,100.00
2023-04-30T04:39:14.005Z,100.00
2023-04-30T04:41:42.940Z,100.00
2023-04-30T04:44:09.782Z,100.00
2023-04-30T04:46:42.761Z,100.00
2023-04-30T04:49:10.703Z,100.00
2023-04-30T04:51:37.394Z,100.00
2023-04-30T04:54:04.262Z,100.00
2023-04-30T04:56:31.733Z,100.00
2023-04-30T04:58:59.697Z,100.00
2023-04-30T05:01:27.524Z,100.00
2023-04-30T05:03:54.777Z,100.00
2023-04-30T05:06:22.476Z,100.00
2023-04-30T05:08:49.220Z,100.00
2023-04-30T05:11:16.386Z,100.00
2023-04-30T05:13:43.882Z,100.00
2023-04-30T05:16:10.956Z,100.00
2023-04-30T05:18:37.788Z,100.00
2023-04-30T05:21:06.101Z,100.00
2023-04-30T05:23:34.193Z,100.00
2023-04-30T05:26:02.741Z,100.00
2023-04-30T05:28:30.662Z,100.00
2023-04-30T05:30:57.485Z,100.00
2023-04-30T05:33:24.279Z,100.00
2023-04-30T05:35:51.867Z,100.00
2023-04-30T05:38:19.598Z,100.00
2023-04-30T05:40:46.605Z,100.00
2023-04-30T05:43:13.462Z,100.00
2023-04-30T05:45:42.088Z,100.00
2023-04-30T05:48:09.736Z,100.00
2023-04-30T05:50:37.506Z,100.00
2023-04-30T05:53:04.936Z,100.00
2023-04-30T05:55:32.210Z,100.00
2023-04-30T05:57:59.150Z,100.00
2023-04-30T06:00:26.536Z,100.00
2023-04-30T06:02:54.325Z,100.00
2023-04-30T06:05:21.472Z,100.00
2023-04-30T06:07:48.397Z,100.00
2023-04-30T06:10:17.185Z,100.00
2023-04-30T06:12:44.237Z,100.00
2023-04-30T06:15:12.109Z,100.00
2023-04-30T06:17:38.813Z,100.00
2023-04-30T06:20:07.288Z,100.00
2023-04-30T06:22:34.783Z,100.00
2023-04-30T06:25:02.009Z,100.00
2023-04-30T06:27:29.897Z,100.00
2023-04-30T06:29:57.029Z,100.00
2023-04-30T06:32:24.035Z,100.00
2023-04-30T06:34:51.605Z,100.00
2023-04-30T06:37:19.150Z,100.00
2023-04-30T06:39:45.894Z,100.00
2023-04-30T06:42:12.795Z,100.00
2023-04-30T06:44:40.086Z,100.00
2023-04-30T06:47:07.250Z,100.00
2023-04-30T06:49:35.046Z,100.00
2023-04-30T06:52:01.990Z,94.66
2023-04-30T06:54:28.716Z,96.60
2023-04-30T06:56:57.688Z,94.99
2023-04-30T06:59:25.417Z,90.76
2023-04-30T07:01:53.913Z,90.43
2023-04-30T07:04:20.709Z,92.30
2023-04-30T07:06:47.681Z,91.68
2023-04-30T07:09:16.016Z,89.96
2023-04-30T07:11:45.123Z,90.70
2023-04-30T07:14:12.484Z,92.18
2023-04-30T07:16:40.418Z,90.27
2023-04-30T07:19:07.265Z,90.87
2023-04-30T07:21:33.982Z,89.06
2023-04-30T07:24:02.123Z,88.94
2023-04-30T07:26:28.855Z,88.39
2023-04-30T07:28:55.711Z,86.97
2023-04-30T07:31:22.456Z,91.60
2023-04-30T07:33:50.883Z,89.38
2023-04-30T07:36:19.646Z,90.53
2023-04-30T07:38:46.936Z,87.64
2023-04-30T07:41:14.603Z,88.39
2023-04-30T07:43:41.310Z,88.22
2023-04-30T07:46:08.577Z,87.93
2023-04-30T07:48:37.116Z,87.06
2023-04-30T07:51:06.487Z,86.94
2023-04-30T07:53:33.597Z,89.36
2023-04-30T07:56:00.522Z,86.61
2023-04-30T07:58:27.293Z,88.53
2023-04-30T08:00:55.254Z,88.50
2023-04-30T08:03:22.694Z,83.73
2023-04-30T08:05:50.314Z,87.57
2023-04-30T08:08:17.922Z,86.71
2023-04-30T08:10:44.698Z,87.06
2023-04-30T08:13:11.594Z,85.93
2023-04-30T08:15:40.492Z,85.85
2023-04-30T08:18:07.485Z,82.80
2023-04-30T08:20:35.991Z,82.49
2023-04-30T08:23:03.358Z,85.26
2023-04-30T08:25:31.921Z,83.32
2023-04-30T08:28:00.193Z,85.18
2023-04-30T08:30:27.009Z,85.04
2023-04-30T08:32:56.728Z,84.17
2023-04-30T08:35:25.411Z,84.88
2023-04-30T08:37:52.548Z,83.04
2023-04-30T08:40:19.694Z,80.58
2023-04-30T08:42:51.048Z,81.70
2023-04-30T08:45:18.508Z,83.29
2023-04-30T08:47:45.918Z,84.39
2023-04-30T08:50:13.598Z,84.14
2023-04-30T08:52:40.613Z,79.70
2023-04-30T08:55:08.483Z,82.75
2023-04-30T08:57:36.754Z,80.99
2023-04-30T09:00:04.623Z,81.03
2023-04-30T09:02:34.171Z,79.09
2023-04-30T09:05:02.660Z,80.84
2023-04-30T09:07:31.262Z,78.27
2023-04-30T09:10:01.097Z,78.66
2023-04-30T09:12:27.812Z,78.86
2023-04-30T09:15:05.671Z,80.76
2023-04-30T09:17:33.258Z,80.41
2023-04-30T09:20:12.003Z,76.70
2023-04-30T09:22:41.706Z,78.01
2023-04-30T09:25:10.040Z,76.83
2023-04-30T09:27:37.646Z,73.56
2023-04-30T09:30:05.082Z,76.88
2023-04-30T09:32:32.112Z,78.36
2023-04-30T09:34:58.898Z,75.90
2023-04-30T09:37:39.369Z,72.72
2023-04-30T09:40:07.030Z,73.53
2023-04-30T09:42:33.815Z,75.68
2023-04-30T09:45:01.830Z,73.22
2023-04-30T09:47:33.711Z,76.71
2023-04-30T09:50:02.464Z,71.18
2023-04-30T09:52:30.210Z,72.13
2023-04-30T09:54:57.408Z,73.52
2023-04-30T09:57:25.129Z,72.75
2023-04-30T09:59:53.828Z,72.38
2023-04-30T10:02:24.206Z,73.02
2023-04-30T10:04:55.764Z,71.52
2023-04-30T10:07:25.697Z,72.47
2023-04-30T10:10:09.541Z,71.57
2023-04-30T10:12:44.848Z,69.60
2023-04-30T10:15:29.234Z,68.99
2023-04-30T10:18:07.628Z,70.88
2023-04-30T10:20:39.580Z,71.89
2023-04-30T10:23:07.732Z,68.57
2023-04-30T10:25:34.744Z,69.59
2023-04-30T10:28:03.969Z,69.74
2023-04-30T10:30:32.345Z,70.68
2023-04-30T10:33:21.188Z,67.50
2023-04-30T10:35:55.264Z,67.27
2023-04-30T10:38:25.813Z,68.31
2023-04-30T10:41:00.011Z,67.98
2023-04-30T10:43:28.623Z,68.81
2023-04-30T10:46:01.459Z,66.13
2023-04-30T10:48:31.315Z,65.24
2023-04-30T10:50:59.847Z,66.20
2023-04-30T10:53:31.815Z,66.67
2023-04-30T10:56:09.942Z,64.04
2023-04-30T10:58:39.789Z,64.88
2023-04-30T11:01:12.401Z,65.80
2023-04-30T11:03:42.798Z,65.92
2023-04-30T11:06:14.406Z,65.54
2023-04-30T11:08:48.141Z,65.60
2023-04-30T11:11:21.697Z,66.64
2023-04-30T11:13:59.413Z,66.73
2023-04-30T11:16:31.212Z,65.83
2023-04-30T11:19:13.780Z,64.30
2023-04-30T11:22:06.927Z,63.01
2023-04-30T11:25:13.538Z,65.33
2023-04-30T11:27:47.276Z,63.83
2023-04-30T11:30:15.954Z,63.71
2023-04-30T11:32:46.663Z,64.75
2023-04-30T11:35:14.136Z,63.49
2023-04-30T11:37:46.086Z,63.58
2023-04-30T11:40:14.227Z,64.37
2023-04-30T11:42:45.939Z,63.30
2023-04-30T11:45:18.121Z,61.45
2023-04-30T11:47:47.500Z,63.39
2023-04-30T11:50:16.221Z,63.82
2023-04-30T11:52:43.979Z,65.73
2023-04-30T11:55:16.007Z,62.67
2023-04-30T12:00:17.774Z,63.42
2023-04-30T12:02:46.230Z,62.73
2023-04-30T12:05:17.577Z,61.71
2023-04-30T12:08:10.006Z,61.48
2023-04-30T12:10:36.769Z,62.66
2023-04-30T12:13:03.939Z,60.69
2023-04-30T12:15:30.640Z,60.90
2023-04-30T12:17:58.694Z,61.75
2023-04-30T12:20:28.484Z,62.08
2023-04-30T12:22:55.290Z,59.15
2023-04-30T12:25:23.108Z,59.18
2023-04-30T12:27:52.225Z,59.70
2023-04-30T12:30:25.091Z,60.90
2023-04-30T12:32:53.379Z,59.28
2023-04-30T12:35:21.969Z,58.49
2023-04-30T12:37:54.276Z,55.82
2023-04-30T12:40:26.669Z,57.85
2023-04-30T12:43:01.318Z,56.30
2023-04-30T12:46:06.455Z,57.66
2023-04-30T12:48:42.713Z,57.90
2023-04-30T12:51:10.353Z,56.64
2023-04-30T12:53:46.091Z,55.86
2023-04-30T12:56:19.962Z,55.76
2023-04-30T12:58:48.697Z,56.56
2023-04-30T13:01:17.801Z,55.50
2023-04-30T13:03:44.643Z,55.98
2023-04-30T13:06:11.878Z,56.80
2023-04-30T13:08:46.273Z,57.06
2023-04-30T13:11:17.107Z,57.12
2023-04-30T13:13:43.898Z,56.16
2023-04-30T13:16:10.831Z,58.02
2023-04-30T13:18:37.682Z,54.00
2023-04-30T13:21:04.560Z,55.20
2023-04-30T13:23:35.959Z,55.39
2023-04-30T13:26:08.221Z,56.36
2023-04-30T13:28:34.961Z,55.69
2023-04-30T13:31:02.988Z,55.26
2023-04-30T13:33:29.830Z,55.56
2023-04-30T13:35:56.603Z,52.85
2023-04-30T13:38:23.487Z,55.79
2023-04-30T13:40:50.425Z,55.48
2023-04-30T13:43:17.235Z,61.61
2023-04-30T13:45:44.015Z,56.17
2023-04-30T13:48:11.159Z,57.17
2023-04-30T13:50:38.017Z,57.30
2023-04-30T13:53:04.779Z,56.31
2023-04-30T13:55:32.474Z,57.15
2023-04-30T13:57:59.432Z,55.47
2023-04-30T14:00:26.831Z,56.08
2023-04-30T14:02:53.878Z,55.35
2023-04-30T14:05:20.736Z,55.92
2023-04-30T14:07:47.665Z,54.69
2023-04-30T14:10:14.514Z,54.73
2023-04-30T14:12:41.423Z,54.96
2023-04-30T14:15:08.588Z,54.73
2023-04-30T14:17:35.769Z,54.84
2023-04-30T14:20:02.861Z,55.37
2023-04-30T14:22:29.754Z,55.05
2023-04-30T14:24:56.692Z,54.67
2023-04-30T14:27:23.817Z,53.40
2023-04-30T14:29:50.660Z,53.74
2023-04-30T14:32:17.553Z,54.55
2023-04-30T14:34:45.023Z,53.78
2023-04-30T14:37:11.980Z,55.07
2023-04-30T14:39:38.708Z,54.41
2023-04-30T14:42:05.443Z,55.29
2023-04-30T14:44:32.886Z,55.55
2023-04-30T14:46:59.779Z,55.83
2023-04-30T14:49:27.092Z,55.78
2023-04-30T14:51:54.007Z,55.74
2023-04-30T14:54:21.049Z,54.92
2023-04-30T14:56:48.284Z,55.99
2023-04-30T14:59:15.588Z,56.09
2023-04-30T15:01:42.698Z,54.58
2023-04-30T15:04:09.797Z,55.38
2023-04-30T15:06:36.796Z,55.13
2023-04-30T15:09:04.169Z,54.57
2023-04-30T15:11:33.792Z,55.00
2023-04-30T15:14:01.044Z,54.47
2023-04-30T15:16:28.483Z,54.69
2023-04-30T15:18:55.410Z,54.43
2023-04-30T15:21:22.385Z,54.33
2023-04-30T15:23:50.603Z,54.93
2023-04-30T15:26:17.703Z,55.69
2023-04-30T15:28:44.590Z,56.41
2023-04-30T15:31:11.750Z,55.35
2023-04-30T15:33:42.419Z,56.42
2023-04-30T15:36:10.759Z,54.84
2023-04-30T15:38:37.680Z,56.06
2023-04-30T15:41:04.490Z,56.49
2023-04-30T15:43:32.588Z,57.58
2023-04-30T15:45:59.507Z,55.71
2023-04-30T15:48:26.314Z,54.93
2023-04-30T15:50:53.125Z,55.55
2023-04-30T15:54:23.675Z,55.63
2023-04-30T15:56:51.854Z,54.79
2023-04-30T16:01:44.798Z,55.90
2023-04-30T16:04:11.878Z,55.57
2023-04-30T16:06:38.771Z,56.60
2023-04-30T16:09:07.904Z,55.59
2023-04-30T16:11:35.504Z,54.35
2023-04-30T16:14:02.885Z,54.15
2023-04-30T16:16:29.850Z,54.07
2023-04-30T16:18:56.638Z,54.40
2023-04-30T16:21:24.113Z,55.56
2023-04-30T16:23:51.038Z,53.65
2023-04-30T16:26:18.010Z,52.83
2023-04-30T16:28:45.609Z,53.71
2023-04-30T16:31:14.286Z,53.06
2023-04-30T16:33:42.125Z,52.08
2023-04-30T16:36:08.962Z,51.60
2023-04-30T16:38:36.250Z,52.63
2023-04-30T16:41:03.184Z,54.56
2023-04-30T16:43:29.853Z,53.97
2023-04-30T16:45:56.631Z,54.31
2023-04-30T16:48:23.312Z,54.39
2023-04-30T16:50:50.020Z,55.12
2023-04-30T16:53:16.708Z,55.48
2023-04-30T16:55:43.856Z,55.13
2023-04-30T16:58:10.548Z,56.37
2023-04-30T17:00:37.215Z,55.73
2023-04-30T17:03:05.071Z,56.90
2023-04-30T17:05:32.192Z,56.80
2023-04-30T17:07:58.876Z,56.80
2023-04-30T17:10:26.826Z,56.59
2023-04-30T17:12:54.074Z,56.33
2023-04-30T17:15:20.832Z,54.96
2023-04-30T17:17:47.594Z,56.42
2023-04-30T17:20:14.274Z,57.29
2023-04-30T17:22:41.203Z,55.83
2023-04-30T17:25:08.521Z,57.42
2023-04-30T17:27:35.559Z,55.87
2023-04-30T17:30:02.650Z,55.66
2023-04-30T17:32:29.370Z,56.36
2023-04-30T17:34:56.171Z,55.65
2023-04-30T17:37:23.633Z,55.13
2023-04-30T17:39:50.347Z,55.39
2023-04-30T17:42:31.707Z,55.46
2023-04-30T17:45:11.683Z,55.25
2023-04-30T17:48:13.892Z,55.49
2023-04-30T17:50:56.645Z,56.67
2023-04-30T17:53:42.331Z,56.99
2023-04-30T17:56:29.350Z,57.97
2023-04-30T17:59:13.592Z,57.92
2023-04-30T18:01:48.483Z,58.65
2023-04-30T18:04:36.798Z,58.42
2023-04-30T18:07:19.274Z,58.43
2023-04-30T18:09:55.919Z,58.76
2023-04-30T18:12:54.565Z,59.37
2023-04-30T18:15:22.930Z,59.44
2023-04-30T18:17:56.116Z,58.44
2023-04-30T18:20:29.201Z,58.66
2023-04-30T18:23:16.321Z,59.56
2023-04-30T18:26:19.624Z,61.11
2023-04-30T18:29:15.581Z,61.55
2023-04-30T18:31:44.458Z,61.54
2023-04-30T18:34:28.077Z,62.07
2023-04-30T18:37:03.517Z,63.23
2023-04-30T18:39:48.274Z,63.82
2023-04-30T18:42:32.215Z,63.93
2023-04-30T18:45:05.820Z,65.62
2023-04-30T18:47:47.798Z,64.42
2023-04-30T18:50:20.287Z,65.96
2023-04-30T18:52:55.433Z,66.18
2023-04-30T18:55:37.628Z,67.32
2023-04-30T18:58:32.130Z,66.94
2023-04-30T19:01:05.736Z,67.49
2023-04-30T19:03:45.744Z,67.42
2023-04-30T19:06:35.181Z,67.93
2023-04-30T19:09:16.036Z,68.42
2023-04-30T19:14:53.227Z,69.44
2023-04-30T19:17:26.446Z,69.19
2023-04-30T19:20:05.972Z,69.74
2023-04-30T19:22:53.066Z,69.15
2023-04-30T19:25:45.598Z,68.70
2023-04-30T19:28:14.805Z,68.30
2023-04-30T19:30:41.934Z,68.56
2023-04-30T19:33:09.049Z,68.25
2023-04-30T19:35:35.759Z,70.61
2023-04-30T19:38:02.871Z,68.87
2023-04-30T19:40:29.600Z,68.49
2023-04-30T19:42:56.327Z,68.60
2023-04-30T19:45:23.021Z,69.44
2023-04-30T19:47:49.782Z,69.82
2023-04-30T19:50:16.665Z,70.49
2023-04-30T19:52:43.331Z,70.23
2023-04-30T19:55:10.037Z,68.94
2023-04-30T19:57:36.765Z,69.11
2023-04-30T20:00:04.682Z,68.46
2023-04-30T20:02:31.553Z,68.02
2023-04-30T20:04:58.495Z,67.23
2023-04-30T20:07:25.254Z,66.98
2023-04-30T20:09:51.980Z,67.84
2023-04-30T20:12:18.652Z,67.54
2023-04-30T20:14:45.595Z,67.81
2023-04-30T20:17:13.746Z,68.03
2023-04-30T20:19:40.478Z,68.32
2023-04-30T20:22:13.319Z,67.36
2023-04-30T20:24:44.996Z,67.14
2023-04-30T20:27:12.663Z,67.17
2023-04-30T20:29:42.259Z,66.39
2023-04-30T20:32:09.549Z,67.35
2023-04-30T20:34:37.440Z,66.74
2023-04-30T20:37:05.845Z,66.78
2023-04-30T20:39:32.918Z,67.96
2023-04-30T20:42:00.383Z,66.11
2023-04-30T20:44:27.140Z,67.22
2023-04-30T20:46:53.891Z,66.02
2023-04-30T20:49:20.756Z,67.17
2023-04-30T20:51:47.559Z,67.20
2023-04-30T20:54:14.252Z,66.45
2023-04-30T20:56:41.006Z,67.14
2023-04-30T20:59:07.656Z,64.30
2023-04-30T21:01:34.415Z,66.56
2023-04-30T21:04:01.310Z,65.28
2023-04-30T21:06:28.345Z,64.97
2023-04-30T21:08:55.133Z,65.74
2023-04-30T21:11:21.910Z,64.38
2023-04-30T21:13:51.265Z,66.35
2023-04-30T21:16:18.531Z,66.11
2023-04-30T21:18:46.524Z,65.28
2023-04-30T21:21:13.253Z,64.91
2023-04-30T21:23:40.257Z,66.37
2023-04-30T21:26:07.370Z,65.87
2023-04-30T21:28:34.405Z,66.72
2023-04-30T21:31:08.106Z,67.86
2023-04-30T21:33:36.172Z,67.42
2023-04-30T21:36:03.494Z,67.30
2023-04-30T21:38:30.276Z,67.76
2023-04-30T21:40:57.224Z,67.84
2023-04-30T21:43:24.244Z,68.38
2023-04-30T21:45:50.998Z,69.35
2023-04-30T21:48:17.960Z,69.39
2023-04-30T21:50:44.908Z,68.88
2023-04-30T21:53:11.782Z,67.33
2023-04-30T21:55:38.504Z,67.74
2023-04-30T21:58:05.210Z,68.45
2023-04-30T22:00:32.028Z,68.27
2023-04-30T22:02:58.905Z,69.94
2023-04-30T22:05:26.296Z,67.90
2023-04-30T22:07:53.035Z,70.21
2023-04-30T22:10:20.020Z,68.23
2023-04-30T22:12:47.961Z,68.45
2023-04-30T22:15:14.938Z,68.22
2023-04-30T22:17:41.904Z,69.43
2023-04-30T22:20:10.277Z,67.95
2023-04-30T22:22:36.998Z,69.00
2023-04-30T22:25:04.876Z,69.19
2023-04-30T22:27:32.314Z,68.54
2023-04-30T22:29:59.282Z,68.17
2023-04-30T22:32:26.600Z,66.92
2023-04-30T22:34:53.355Z,67.28
2023-04-30T22:37:20.107Z,67.23
2023-04-30T22:39:48.073Z,67.55
2023-04-30T22:42:15.821Z,67.76
2023-04-30T22:44:42.571Z,67.98
2023-04-30T22:47:09.490Z,68.58
2023-04-30T22:49:37.645Z,69.14
2023-04-30T22:52:04.742Z,69.72
2023-04-30T22:54:31.803Z,69.20
2023-04-30T22:56:58.749Z,68.82
2023-04-30T22:59:25.961Z,69.86
2023-04-30T23:01:52.686Z,69.55
2023-04-30T23:04:19.775Z,69.95
2023-04-30T23:06:46.777Z,70.92
2023-04-30T23:09:15.907Z,70.22
2023-04-30T23:11:42.619Z,70.60
2023-04-30T23:14:09.290Z,70.11
2023-04-30T23:16:36.042Z,70.28
2023-04-30T23:19:02.788Z,69.76
2023-04-30T23:21:29.613Z,69.29
2023-04-30T23:23:56.369Z,70.80
2023-04-30T23:26:23.485Z,71.54
2023-04-30T23:28:50.212Z,71.10
2023-04-30T23:31:18.408Z,71.51
2023-04-30T23:33:45.126Z,70.71
2023-04-30T23:36:11.859Z,71.54
2023-04-30T23:38:38.623Z,71.84
2023-04-30T23:41:05.476Z,71.29
2023-04-30T23:43:33.268Z,71.77
2023-04-30T23:46:00.424Z,71.94
2023-04-30T23:48:27.296Z,70.98
2023-04-30T23:51:04.666Z,71.29
2023-04-30T23:53:31.785Z,71.56
2023-04-30T23:55:59.027Z,71.69
2023-04-30T23:58:26.162Z,71.46
